createdAt,value
2023-02-22T00:02:11.443Z,8.42
2023-02-22T00:04:40.526Z,8.35
2023-02-22T00:07:09.163Z,8.48
2023-02-22T00:09:37.012Z,8.53
2023-02-22T00:12:04.912Z,8.66
2023-02-22T00:14:33.742Z,8.56
2023-02-22T00:17:02.570Z,8.42
2023-02-22T00:19:31.344Z,8.17
2023-02-22T00:22:00.212Z,8.14
2023-02-22T00:24:29.567Z,8.03
2023-02-22T00:26:58.126Z,8.06
2023-02-22T00:29:27.011Z,8.11
2023-02-22T00:31:54.870Z,8.30
2023-02-22T00:34:24.345Z,8.46
2023-02-22T00:36:52.962Z,8.47
2023-02-22T00:39:20.768Z,8.37
2023-02-22T00:41:49.888Z,8.41
2023-02-22T00:44:18.492Z,8.40
2023-02-22T00:46:46.974Z,8.40
2023-02-22T00:49:18.616Z,8.50
2023-02-22T00:51:47.151Z,8.55
2023-02-22T00:54:16.060Z,8.56
2023-02-22T00:56:45.923Z,8.56
2023-02-22T00:59:14.433Z,8.52
2023-02-22T01:01:43.136Z,8.48
2023-02-22T01:04:10.966Z,8.50
2023-02-22T01:06:38.742Z,8.61
2023-02-22T01:09:07.904Z,8.57
2023-02-22T01:11:35.657Z,8.66
2023-02-22T01:14:04.181Z,8.62
2023-02-22T01:16:31.960Z,8.46
2023-02-22T01:19:01.496Z,8.52
2023-02-22T01:21:29.226Z,8.25
2023-02-22T01:23:56.938Z,7.97
2023-02-22T01:26:24.693Z,7.84
2023-02-22T01:28:53.200Z,7.69
2023-02-22T01:31:20.985Z,7.75
2023-02-22T01:33:53.860Z,7.69
2023-02-22T01:36:22.621Z,7.62
2023-02-22T01:38:51.166Z,7.41
2023-02-22T01:41:19.919Z,7.34
2023-02-22T01:43:48.529Z,7.40
2023-02-22T01:46:27.261Z,7.33
2023-02-22T01:49:06.442Z,7.19
2023-02-22T01:51:44.261Z,7.13
2023-02-22T01:54:34.164Z,7.06
2023-02-22T01:57:29.969Z,7.03
2023-02-22T02:00:14.877Z,6.87
2023-02-22T02:03:09.530Z,6.77
2023-02-22T02:05:39.283Z,6.85
2023-02-22T02:08:39.122Z,6.80
2023-02-22T02:11:10.750Z,6.87
2023-02-22T02:13:39.033Z,6.91
2023-02-22T02:16:07.921Z,6.76
2023-02-22T02:18:35.959Z,6.60
2023-02-22T02:21:37.627Z,6.68
2023-02-22T02:24:41.443Z,6.93
2023-02-22T02:27:24.459Z,6.84
2023-02-22T02:30:40.627Z,6.95
2023-02-22T02:33:13.671Z,7.08
2023-02-22T02:36:09.119Z,6.92
2023-02-22T02:39:21.831Z,7.09
2023-02-22T02:41:52.679Z,7.31
2023-02-22T02:45:06.124Z,7.29
2023-02-22T02:47:45.289Z,7.31
2023-02-22T02:50:49.199Z,7.19
2023-02-22T02:53:25.664Z,7.15
2023-02-22T02:55:54.249Z,7.00
2023-02-22T02:58:24.676Z,7.06
2023-02-22T03:01:00.596Z,6.99
2023-02-22T03:04:20.586Z,6.93
2023-02-22T03:07:21.146Z,6.77
2023-02-22T03:10:23.994Z,6.80
2023-02-22T03:13:12.807Z,6.77
2023-02-22T03:16:04.948Z,6.92
2023-02-22T03:18:56.881Z,6.90
2023-02-22T03:21:40.351Z,6.88
2023-02-22T03:24:39.034Z,6.80
2023-02-22T03:27:29.312Z,6.70
2023-02-22T03:30:12.500Z,6.61
2023-02-22T03:32:49.770Z,6.53
2023-02-22T03:35:30.702Z,6.50
2023-02-22T03:38:04.589Z,6.49
2023-02-22T03:40:39.882Z,6.53
2023-02-22T03:43:15.693Z,6.38
2023-02-22T03:45:47.618Z,6.23
2023-02-22T03:48:58.837Z,6.35
2023-02-22T03:51:28.400Z,6.32
2023-02-22T03:53:57.620Z,6.12
2023-02-22T03:56:37.984Z,6.01
2023-02-22T03:59:10.455Z,5.73
2023-02-22T04:01:39.355Z,5.63
2023-02-22T04:04:08.218Z,5.67
2023-02-22T04:06:36.846Z,5.78
2023-02-22T04:09:08.766Z,5.89
2023-02-22T04:11:36.460Z,5.90
2023-02-22T04:14:06.124Z,5.64
2023-02-22T04:16:35.552Z,5.60
2023-02-22T04:19:04.245Z,5.52
2023-02-22T04:21:33.253Z,5.64
2023-02-22T04:24:01.870Z,5.70
2023-02-22T04:26:29.661Z,5.90
2023-02-22T04:28:57.459Z,6.06
2023-02-22T04:31:25.331Z,6.16
2023-02-22T04:33:53.096Z,6.08
2023-02-22T04:36:22.096Z,6.15
2023-02-22T04:38:50.763Z,6.12
2023-02-22T04:41:20.120Z,5.83
2023-02-22T04:43:48.780Z,5.92
2023-02-22T04:46:17.823Z,6.03
2023-02-22T04:48:46.664Z,6.14
2023-02-22T04:51:17.503Z,6.01
2023-02-22T04:53:47.116Z,6.02
2023-02-22T04:56:19.483Z,6.04
2023-02-22T04:58:48.235Z,6.13
2023-02-22T05:01:18.072Z,6.08
2023-02-22T05:03:46.023Z,6.08
2023-02-22T05:06:14.775Z,6.05
2023-02-22T05:08:43.509Z,5.99
2023-02-22T05:11:12.882Z,5.99
2023-02-22T05:13:42.412Z,6.01
2023-02-22T05:16:12.247Z,6.04
2023-02-22T05:18:41.105Z,6.01
2023-02-22T05:21:10.047Z,6.03
2023-02-22T05:23:39.631Z,6.02
2023-02-22T05:26:11.236Z,5.99
2023-02-22T05:28:40.474Z,6.02
2023-02-22T05:31:09.222Z,6.08
2023-02-22T05:33:39.763Z,6.03
2023-02-22T05:36:10.115Z,5.91
2023-02-22T05:38:44.152Z,6.01
2023-02-22T05:41:14.459Z,6.08
2023-02-22T05:43:44.185Z,5.97
2023-02-22T05:46:15.210Z,4.67
2023-02-22T05:48:43.901Z,4.10
2023-02-22T05:51:12.696Z,4.16
2023-02-22T05:53:40.448Z,4.54
2023-02-22T05:56:09.290Z,4.79
2023-02-22T05:58:37.927Z,4.90
2023-02-22T06:01:06.684Z,5.18
2023-02-22T06:03:35.320Z,5.23
2023-02-22T06:06:04.798Z,5.34
2023-02-22T06:08:34.262Z,5.47
2023-02-22T06:11:02.951Z,8.22
2023-02-22T06:13:31.704Z,9.32
2023-02-22T06:16:00.472Z,8.30
2023-02-22T06:18:33.173Z,7.38
2023-02-22T06:21:02.779Z,6.38
2023-02-22T06:23:31.532Z,7.06
2023-02-22T06:26:00.195Z,6.91
2023-02-22T06:28:28.811Z,6.44
2023-02-22T06:30:57.546Z,6.77
2023-02-22T06:33:26.200Z,8.10
2023-02-22T06:35:54.851Z,9.80
2023-02-22T06:38:26.162Z,10.72
2023-02-22T06:40:55.635Z,11.77
2023-02-22T06:43:25.920Z,13.28
2023-02-22T06:45:55.444Z,14.07
2023-02-22T06:48:24.071Z,14.23
2023-02-22T06:50:53.619Z,13.64
2023-02-22T06:53:23.182Z,13.97
2023-02-22T06:55:55.530Z,15.09
2023-02-22T06:58:24.981Z,15.39
2023-02-22T07:00:54.619Z,15.75
2023-02-22T07:03:24.124Z,17.07
2023-02-22T07:05:52.800Z,15.84
2023-02-22T07:08:21.396Z,16.13
2023-02-22T07:10:50.896Z,15.80
2023-02-22T07:13:19.614Z,15.55
2023-02-22T07:15:48.539Z,16.06
2023-02-22T07:18:17.988Z,15.94
2023-02-22T07:20:46.724Z,17.55
2023-02-22T07:23:17.226Z,14.80
2023-02-22T07:25:46.249Z,11.58
2023-02-22T07:28:15.054Z,10.45
2023-02-22T07:30:43.892Z,10.77
2023-02-22T07:33:14.516Z,10.58
2023-02-22T07:35:50.257Z,10.83
2023-02-22T07:38:21.364Z,10.53
2023-02-22T07:40:50.084Z,10.50
2023-02-22T07:43:27.643Z,10.47
2023-02-22T07:46:00.102Z,10.55
2023-02-22T07:48:31.831Z,11.14
2023-02-22T07:51:00.500Z,11.32
2023-02-22T07:53:33.647Z,10.77
2023-02-22T07:56:05.816Z,11.27
2023-02-22T07:58:35.443Z,11.36
2023-02-22T08:01:04.730Z,11.10
2023-02-22T08:03:36.940Z,11.39
2023-02-22T08:06:07.915Z,11.12
2023-02-22T08:08:37.392Z,11.89
2023-02-22T08:11:06.257Z,11.40
2023-02-22T08:13:37.301Z,11.75
2023-02-22T08:16:06.493Z,11.56
2023-02-22T08:18:34.184Z,11.24
2023-02-22T08:21:02.793Z,11.92
2023-02-22T08:23:31.803Z,11.93
2023-02-22T08:26:20.872Z,11.91
2023-02-22T08:28:49.783Z,11.79
2023-02-22T08:31:17.890Z,12.22
2023-02-22T08:33:50.089Z,12.02
2023-02-22T08:36:18.713Z,11.92
2023-02-22T08:38:46.401Z,12.12
2023-02-22T08:41:14.171Z,11.86
2023-02-22T08:43:41.900Z,11.67
2023-02-22T08:46:10.395Z,11.20
2023-02-22T08:48:38.215Z,11.21
2023-02-22T08:51:06.803Z,11.16
2023-02-22T08:53:35.542Z,10.91
2023-02-22T08:56:04.422Z,10.97
2023-02-22T08:58:32.226Z,11.17
2023-02-22T09:01:00.760Z,11.18
2023-02-22T09:03:30.250Z,11.68
2023-02-22T09:05:59.597Z,11.86
2023-02-22T09:08:28.345Z,12.07
2023-02-22T09:10:56.800Z,11.82
2023-02-22T09:13:25.478Z,11.55
2023-02-22T09:15:53.191Z,11.40
2023-02-22T09:18:21.329Z,11.06
2023-02-22T09:20:49.798Z,11.97
2023-02-22T09:23:21.532Z,11.94
2023-02-22T09:25:51.077Z,12.34
2023-02-22T09:28:18.873Z,12.58
2023-02-22T09:30:47.639Z,11.63
2023-02-22T09:33:19.873Z,12.25
2023-02-22T09:35:50.680Z,12.44
2023-02-22T09:38:23.259Z,12.60
2023-02-22T09:41:15.966Z,12.40
2023-02-22T09:44:21.122Z,12.44
2023-02-22T09:46:54.661Z,12.80
2023-02-22T09:49:39.283Z,12.64
2023-02-22T09:52:35.904Z,12.29
2023-02-22T09:55:35.422Z,12.72
2023-02-22T09:58:22.965Z,12.63
2023-02-22T10:01:05.232Z,12.43
2023-02-22T10:04:04.436Z,12.54
2023-02-22T10:06:35.646Z,12.73
2023-02-22T10:09:08.101Z,12.65
2023-02-22T10:12:03.119Z,13.21
2023-02-22T10:14:44.096Z,13.10
2023-02-22T10:17:48.208Z,12.68
2023-02-22T10:20:28.798Z,12.81
2023-02-22T10:23:35.067Z,12.75
2023-02-22T10:26:27.701Z,12.83
2023-02-22T10:29:42.950Z,13.65
2023-02-22T10:32:28.935Z,13.17
2023-02-22T10:34:59.095Z,13.20
2023-02-22T10:37:30.731Z,13.70
2023-02-22T10:40:23.114Z,13.61
2023-02-22T10:42:51.700Z,13.28
2023-02-22T10:45:32.823Z,13.83
2023-02-22T10:48:08.918Z,14.08
2023-02-22T10:50:42.605Z,13.70
2023-02-22T10:53:15.545Z,13.37
2023-02-22T10:56:22.992Z,13.81
2023-02-22T10:59:02.572Z,13.96
2023-02-22T11:01:33.071Z,14.51
2023-02-22T11:04:21.877Z,13.71
2023-02-22T11:07:35.467Z,13.69
2023-02-22T11:10:09.592Z,13.66
2023-02-22T11:12:51.533Z,14.59
2023-02-22T11:15:19.125Z,15.07
2023-02-22T11:17:55.373Z,14.04
2023-02-22T11:20:34.665Z,14.37
2023-02-22T11:23:05.698Z,14.14
2023-02-22T11:25:38.976Z,14.20
2023-02-22T11:28:33.027Z,14.78
2023-02-22T11:31:27.197Z,14.53
2023-02-22T11:34:02.221Z,14.49
2023-02-22T11:36:42.039Z,15.07
2023-02-22T11:39:35.628Z,14.89
2023-02-22T11:42:28.227Z,15.29
2023-02-22T11:45:27.670Z,15.06
2023-02-22T11:48:03.337Z,15.28
2023-02-22T11:51:10.897Z,15.15
2023-02-22T11:54:32.200Z,14.49
2023-02-22T11:57:30.208Z,14.08
2023-02-22T12:00:16.601Z,14.36
2023-02-22T12:03:25.332Z,14.17
2023-02-22T12:06:19.941Z,13.91
2023-02-22T12:09:36.925Z,14.10
2023-02-22T12:12:41.394Z,14.43
2023-02-22T12:15:37.844Z,14.15
2023-02-22T12:18:53.690Z,14.09
2023-02-22T12:21:24.646Z,14.18
2023-02-22T12:24:08.233Z,14.11
2023-02-22T12:26:47.331Z,13.79
2023-02-22T12:29:37.761Z,13.98
2023-02-22T12:32:16.446Z,13.85
2023-02-22T12:34:56.538Z,13.95
2023-02-22T12:38:01.994Z,13.66
2023-02-22T12:41:05.679Z,13.34
2023-02-22T12:44:18.377Z,13.38
2023-02-22T12:46:55.235Z,13.21
2023-02-22T12:49:52.854Z,12.89
2023-02-22T12:53:08.574Z,12.98
2023-02-22T12:56:31.703Z,13.24
2023-02-22T12:59:38.358Z,13.14
2023-02-22T13:02:48.430Z,12.87
2023-02-22T13:05:18.956Z,12.87
2023-02-22T13:08:19.234Z,13.01
2023-02-22T13:10:57.803Z,13.31
2023-02-22T13:13:47.224Z,13.32
2023-02-22T13:16:52.807Z,13.23
2023-02-22T13:19:33.806Z,13.12
2023-02-22T13:22:38.656Z,12.92
2023-02-22T13:25:24.255Z,12.70
2023-02-22T13:28:45.002Z,12.68
2023-02-22T13:32:02.877Z,13.04
2023-02-22T13:35:40.027Z,12.89
2023-02-22T13:38:58.096Z,12.60
2023-02-22T13:42:03.834Z,12.83
2023-02-22T13:44:52.049Z,13.03
2023-02-22T13:47:50.028Z,12.77
2023-02-22T13:51:04.586Z,12.63
2023-02-22T13:53:48.342Z,12.52
2023-02-22T13:56:20.423Z,12.81
2023-02-22T13:59:02.781Z,12.56
2023-02-22T14:01:49.353Z,12.46
2023-02-22T14:04:29.279Z,12.46
2023-02-22T14:07:02.761Z,12.66
2023-02-22T14:09:50.667Z,12.50
2023-02-22T14:12:31.028Z,12.68
2023-02-22T14:15:30.927Z,12.79
2023-02-22T14:18:02.254Z,12.87
2023-02-22T14:20:40.435Z,12.57
2023-02-22T14:23:45.640Z,12.57
2023-02-22T14:26:33.452Z,12.50
2023-02-22T14:29:08.009Z,12.65
2023-02-22T14:31:43.547Z,12.77
2023-02-22T14:34:50.091Z,12.70
2023-02-22T14:37:26.799Z,12.47
2023-02-22T14:40:25.978Z,12.54
2023-02-22T14:43:21.303Z,12.56
2023-02-22T14:45:56.354Z,12.68
2023-02-22T14:48:39.670Z,12.69
2023-02-22T14:51:30.706Z,12.71
2023-02-22T14:54:42.093Z,12.74
2023-02-22T14:57:53.846Z,12.60
2023-02-22T15:00:46.042Z,12.29
2023-02-22T15:03:24.608Z,12.45
2023-02-22T15:05:53.173Z,12.25
2023-02-22T15:08:28.393Z,12.45
2023-02-22T15:10:57.045Z,12.50
2023-02-22T15:13:33.189Z,12.29
2023-02-22T15:16:12.555Z,12.32
2023-02-22T15:18:46.443Z,12.41
2023-02-22T15:21:23.706Z,12.48
2023-02-22T15:24:02.280Z,12.46
2023-02-22T15:26:44.272Z,12.25
2023-02-22T15:29:38.294Z,12.36
2023-02-22T15:32:57.012Z,12.15
2023-02-22T15:35:33.764Z,12.18
2023-02-22T15:38:11.594Z,12.25
2023-02-22T15:40:45.400Z,12.16
2023-02-22T15:43:25.320Z,12.17
2023-02-22T15:45:56.838Z,12.25
2023-02-22T15:48:27.944Z,12.22
2023-02-22T15:51:13.934Z,12.25
2023-02-22T15:53:48.859Z,12.28
2023-02-22T15:56:25.953Z,12.06
2023-02-22T15:59:12.399Z,11.96
2023-02-22T16:01:46.409Z,11.57
2023-02-22T16:04:32.694Z,11.74
2023-02-22T16:07:17.235Z,11.48
2023-02-22T16:09:51.034Z,11.53
2023-02-22T16:12:22.662Z,11.53
2023-02-22T16:14:52.606Z,11.46
2023-02-22T16:18:02.426Z,11.26
2023-02-22T16:20:33.958Z,11.38
2023-02-22T16:23:28.898Z,11.35
2023-02-22T16:26:25.944Z,11.32
2023-02-22T16:29:06.512Z,11.34
2023-02-22T16:31:40.221Z,11.11
2023-02-22T16:34:11.075Z,11.11
2023-02-22T16:36:49.179Z,11.01
2023-02-22T16:39:27.629Z,10.89
2023-02-22T16:42:01.688Z,11.02
2023-02-22T16:44:31.170Z,11.03
2023-02-22T16:47:01.187Z,10.86
2023-02-22T16:49:29.807Z,10.84
2023-02-22T16:52:07.210Z,10.96
2023-02-22T16:54:45.297Z,10.97
2023-02-22T16:57:22.061Z,10.85
2023-02-22T16:59:52.953Z,10.87
2023-02-22T17:02:23.104Z,10.88
2023-02-22T17:04:52.647Z,10.91
2023-02-22T17:07:30.894Z,10.72
2023-02-22T17:09:59.722Z,10.82
2023-02-22T17:12:32.225Z,10.84
2023-02-22T17:15:03.624Z,10.69
2023-02-22T17:17:34.296Z,10.77
2023-02-22T17:20:10.215Z,10.79
2023-02-22T17:22:39.707Z,10.75
2023-02-22T17:25:34.726Z,10.70
2023-02-22T17:28:03.988Z,10.53
2023-02-22T17:30:33.722Z,10.26
2023-02-22T17:33:06.588Z,10.14
2023-02-22T17:35:41.121Z,9.95
2023-02-22T17:38:10.621Z,10.13
2023-02-22T17:40:40.505Z,10.30
2023-02-22T17:43:09.005Z,10.14
2023-02-22T17:45:42.583Z,10.45
2023-02-22T17:48:11.202Z,10.32
2023-02-22T17:50:43.511Z,10.21
2023-02-22T17:53:12.823Z,10.22
2023-02-22T17:55:43.592Z,10.27
2023-02-22T17:58:14.932Z,10.17
2023-02-22T18:00:48.268Z,10.17
2023-02-22T18:03:26.020Z,9.80
2023-02-22T18:06:00.449Z,9.78
2023-02-22T18:08:32.344Z,9.81
2023-02-22T18:11:05.443Z,9.96
2023-02-22T18:13:33.181Z,9.92
2023-02-22T18:16:05.802Z,9.89
2023-02-22T18:18:35.070Z,9.91
2023-02-22T18:21:06.368Z,9.96
2023-02-22T18:23:35.740Z,9.94
2023-02-22T18:26:23.473Z,9.83
2023-02-22T18:28:53.867Z,9.86
2023-02-22T18:31:24.284Z,9.67
2023-02-22T18:33:53.881Z,9.71
2023-02-22T18:36:23.582Z,9.71
2023-02-22T18:38:55.299Z,9.77
2023-02-22T18:41:26.548Z,9.70
2023-02-22T18:43:59.102Z,9.62
2023-02-22T18:46:30.187Z,9.49
2023-02-22T18:48:58.677Z,9.38
2023-02-22T18:51:27.726Z,9.54
2023-02-22T18:54:02.526Z,9.41
2023-02-22T18:56:31.127Z,9.38
2023-02-22T18:59:03.509Z,9.35
2023-02-22T19:01:38.792Z,9.14
2023-02-22T19:04:12.813Z,9.09
2023-02-22T19:06:41.525Z,8.96
2023-02-22T19:09:09.491Z,9.10
2023-02-22T19:11:40.625Z,9.08
2023-02-22T19:14:09.694Z,9.00
2023-02-22T19:16:38.589Z,8.87
2023-02-22T19:19:06.794Z,8.84
2023-02-22T19:21:35.499Z,8.95
2023-02-22T19:24:04.744Z,8.91
2023-02-22T19:26:32.547Z,8.98
2023-02-22T19:29:08.593Z,9.00
2023-02-22T19:31:38.064Z,9.00
2023-02-22T19:34:10.427Z,8.83
2023-02-22T19:36:46.167Z,8.66
2023-02-22T19:39:20.815Z,8.61
2023-02-22T19:41:49.806Z,8.72
2023-02-22T19:44:17.519Z,8.63
2023-02-22T19:46:47.633Z,8.67
2023-02-22T19:49:16.406Z,8.81
2023-02-22T19:51:45.136Z,8.62
2023-02-22T19:54:21.453Z,8.71
2023-02-22T19:56:53.062Z,8.51
2023-02-22T19:59:23.694Z,8.69
2023-02-22T20:01:55.550Z,8.64
2023-02-22T20:04:24.657Z,8.64
2023-02-22T20:06:55.583Z,8.63
2023-02-22T20:09:43.277Z,8.66
2023-02-22T20:12:12.725Z,8.65
2023-02-22T20:14:41.444Z,8.50
2023-02-22T20:17:10.972Z,8.51
2023-02-22T20:19:40.766Z,8.40
2023-02-22T20:22:10.274Z,8.36
2023-02-22T20:24:39.074Z,8.16
2023-02-22T20:27:09.315Z,8.23
2023-02-22T20:29:37.950Z,8.16
2023-02-22T20:32:15.018Z,7.94
2023-02-22T20:34:48.465Z,7.96
2023-02-22T20:37:18.376Z,8.00
2023-02-22T20:39:47.067Z,8.03
2023-02-22T20:42:15.833Z,8.16
2023-02-22T20:44:45.318Z,7.97
2023-02-22T20:47:14.819Z,8.12
2023-02-22T20:49:43.439Z,8.16
2023-02-22T20:52:12.483Z,8.26
2023-02-22T20:54:41.158Z,8.28
2023-02-22T20:57:10.019Z,8.16
2023-02-22T20:59:39.641Z,8.24
2023-02-22T21:02:10.792Z,8.28
2023-02-22T21:04:40.122Z,8.03
2023-02-22T21:07:08.812Z,8.03
2023-02-22T21:09:38.411Z,7.87
2023-02-22T21:12:13.651Z,8.09
2023-02-22T21:14:44.444Z,8.28
2023-02-22T21:17:13.061Z,8.32
2023-02-22T21:19:42.544Z,8.07
2023-02-22T21:22:11.209Z,8.08
2023-02-22T21:24:40.796Z,8.02
2023-02-22T21:27:12.350Z,7.94
2023-02-22T21:29:41.026Z,8.32
2023-02-22T21:32:12.920Z,8.28
2023-02-22T21:34:42.535Z,8.11
2023-02-22T21:37:12.202Z,8.08
2023-02-22T21:39:40.801Z,8.07
2023-02-22T21:42:09.449Z,8.22
2023-02-22T21:44:38.351Z,8.10
2023-02-22T21:47:06.514Z,8.07
2023-02-22T21:49:35.987Z,8.07
2023-02-22T21:52:04.825Z,7.88
2023-02-22T21:54:33.716Z,7.86
2023-02-22T21:57:02.397Z,7.91
2023-02-22T21:59:30.119Z,7.98
2023-02-22T22:01:57.919Z,7.86
2023-02-22T22:04:32.569Z,7.73
2023-02-22T22:07:03.993Z,7.69
2023-02-22T22:09:41.383Z,7.64
2023-02-22T22:12:11.585Z,7.57
2023-02-22T22:14:40.559Z,7.35
2023-02-22T22:17:11.008Z,7.43
2023-02-22T22:19:39.539Z,7.44
2023-02-22T22:22:08.926Z,7.32
2023-02-22T22:24:38.130Z,7.33
2023-02-22T22:27:09.881Z,7.63
2023-02-22T22:29:39.554Z,7.57
2023-02-22T22:32:09.138Z,7.59
2023-02-22T22:34:38.125Z,7.55
2023-02-22T22:37:07.818Z,7.45
2023-02-22T22:39:36.659Z,7.35
2023-02-22T22:42:08.098Z,7.36
2023-02-22T22:44:42.451Z,7.51
2023-02-22T22:47:12.372Z,7.39
2023-02-22T22:49:41.199Z,7.33
2023-02-22T22:52:14.056Z,7.29
2023-02-22T22:54:44.365Z,7.36
2023-02-22T22:57:13.085Z,7.32
2023-02-22T22:59:42.540Z,7.34
2023-02-22T23:02:12.051Z,7.28
2023-02-22T23:04:40.714Z,7.09
2023-02-22T23:07:08.627Z,7.28
2023-02-22T23:09:39.581Z,7.20
2023-02-22T23:12:09.909Z,6.96
2023-02-22T23:14:44.418Z,6.95
2023-02-22T23:17:31.108Z,6.74
2023-02-22T23:20:00.587Z,6.90
2023-02-22T23:22:30.123Z,6.96
2023-02-22T23:25:00.115Z,6.82
2023-02-22T23:27:28.862Z,6.74
2023-02-22T23:29:57.578Z,6.52
2023-02-22T23:32:27.463Z,6.42
2023-02-22T23:34:56.872Z,6.30
2023-02-22T23:37:26.324Z,6.23
2023-02-22T23:39:55.786Z,6.21
2023-02-22T23:42:25.283Z,6.31
2023-02-22T23:44:54.750Z,6.25
2023-02-22T23:47:23.399Z,6.24
2023-02-22T23:49:52.028Z,6.26
2023-02-22T23:52:24.603Z,6.18
2023-02-22T23:54:54.200Z,6.38
2023-02-22T23:57:26.062Z,6.41
2023-02-22T23:59:55.536Z,6.16
